To NAV CANADA Home Page Login to a new session Search on AWWS site Disclaimer Vers la page française équivalente Tips FAQ What's new on the site To the Forecasts and Observations / NOTAM section To "File a Flight Plan" website Publications and other links Update of the User's profile FIC Telephone Numbers My Weather Data Folder Route Weather Data Regional Weather Data Local Weather Data To the Forecasts and Observations / NOTAM section
Request Generated 07/18/2019 at 15:05:51 UTC . Weather information available at that time is displayed.

METAR/TAF

GANDER/GANDER INTL/NL    

METAR CYQX 181500Z 30018G28KT 20SM SCT016 SCT027 BKN040 19/14 A2952 RMK CU3SC1SC3 SLP998 DENSITY ALT 1500FT=
METAR CYQX 181400Z 29017G26KT 15SM FEW008 SCT015 BKN026 BKN080 19/16 A2950 RMK SF1CF3SC2AC1 SLP993 DENSITY ALT 1600FT=
SPECI CYQX 181312Z 28013G19KT 15SM FEW003 SCT008 SCT016 BKN026 BKN080 17/17 A2951 RMK SF1SF2SC1SC2AC1 SLP994 DENSITY ALT 1400FT=
METAR CYQX 181300Z 27012G17KT 4SM -SHRA BR SCT002 BKN007 OVC016 16/16 A2951 RMK SF3SF2SC3 VIS S/W-N 10 CVCTV CLD EMBD SLP995 DENSITY
ALT 1200FT=

TAF AMD CYQX 181247Z 1812/1912 27012KT 21/2SM -SHRA BR BKN002 OVC006
TEMPO 1812/1813 6SM -SHRA BR FEW002 SCT006 OVC015
FM181300 28012KT P6SM SCT015 BKN025 TEMPO 1813/1815 5SM -SHRA BR
BKN006 OVC015
FM181500 32015G25KT P6SM BKN030
FM182000 29015G25KT P6SM BKN050
FM182300 28015KT P6SM -SHRA BKN030
FM190400 28012KT P6SM BKN030
RMK NXT FCST BY 181800Z=
Your time UTC time
Weather data provided by Environment Canada and NAV CANADA